Time;durP1;ratioP1;P1;durP2;ratioP2;P2;SDS_P1;SDS_P2;PMS_P1;PMS_P2;Temp;Humidity;BMP_temperature;BMP_pressure;BME280_temperature;BME280_humidity;BME280_pressure;Samples;Min_cycle;Max_cycle;Signal;HPM_P1;HPM_P2
2023/03/26 00:01:28;;;;;;;10.80;7.70;;;11.60;85.80;;;;;;5095888;28;20216;-69
2023/03/26 00:03:56;;;;;;;10.17;8.43;;;11.60;85.50;;;;;;5094953;28;20644;-68
2023/03/26 00:06:27;;;;;;;11.13;8.37;;;11.50;86.40;;;;;;5096147;28;20205;-68
2023/03/26 00:08:56;;;;;;;11.13;7.80;;;11.40;87.20;;;;;;5092319;28;20212;-67
2023/03/26 00:11:26;;;;;;;10.83;8.27;;;11.40;87.90;;;;;;5094291;28;20215;-70
2023/03/26 00:13:55;;;;;;;11.20;8.40;;;11.40;88.40;;;;;;5092091;28;20209;-67
2023/03/26 00:16:26;;;;;;;12.93;8.67;;;11.40;88.40;;;;;;5095212;28;20221;-68
2023/03/26 00:18:54;;;;;;;13.17;8.90;;;11.40;88.30;;;;;;5090072;28;20570;-68
2023/03/26 00:21:27;;;;;;;10.03;8.53;;;11.40;88.60;;;;;;5095865;28;20193;-68
2023/03/26 00:24:03;;;;;;;12.47;8.73;;;11.30;89.10;;;;;;5093299;28;20234;-67
2023/03/26 00:26:32;;;;;;;15.00;8.30;;;11.30;89.50;;;;;;5092297;28;20195;-67
2023/03/26 00:29:02;;;;;;;9.50;7.50;;;11.30;89.70;;;;;;5095207;28;20201;-68
2023/03/26 00:31:29;;;;;;;9.03;7.27;;;11.30;89.60;;;;;;5094535;28;20196;-68
2023/03/26 00:33:56;;;;;;;7.37;6.60;;;11.30;89.40;;;;;;5092803;28;20677;-68
2023/03/26 00:36:25;;;;;;;12.43;8.67;;;11.20;88.80;;;;;;5095299;28;20273;-67
2023/03/26 00:38:53;;;;;;;11.87;8.13;;;11.20;88.40;;;;;;5094721;28;20199;-67
2023/03/26 00:41:24;;;;;;;13.10;8.17;;;11.20;88.90;;;;;;5095041;28;20279;-67
2023/03/26 00:43:55;;;;;;;9.53;7.93;;;11.10;88.70;;;;;;5079068;28;20209;-67
2023/03/26 00:46:24;;;;;;;13.03;8.40;;;11.10;89.00;;;;;;5100330;28;20242;-67
2023/03/26 00:48:52;;;;;;;10.87;9.07;;;11.10;89.70;;;;;;5095547;28;20261;-67
2023/03/26 00:51:20;;;;;;;14.77;9.40;;;11.10;90.00;;;;;;5091551;28;20235;-68
2023/03/26 00:53:49;;;;;;;12.33;9.67;;;11.10;90.10;;;;;;5095286;28;20205;-67
2023/03/26 00:56:17;;;;;;;11.63;9.77;;;11.10;90.30;;;;;;5089736;28;20205;-67
2023/03/26 00:58:46;;;;;;;10.20;9.07;;;11.00;90.50;;;;;;5095295;28;20525;-67
2023/03/26 01:01:25;;;;;;;13.87;9.90;;;11.00;90.70;;;;;;5092877;28;20208;-67
2023/03/26 01:03:57;;;;;;;12.73;9.87;;;11.10;90.70;;;;;;5094017;28;20258;-69
2023/03/26 01:06:33;;;;;;;9.23;7.40;;;11.10;90.90;;;;;;5095124;28;20195;-67
2023/03/26 01:09:14;;;;;;;9.07;6.40;;;11.00;90.80;;;;;;5107324;28;20218;-67
2023/03/26 01:11:42;;;;;;;9.97;7.50;;;11.10;90.00;;;;;;5095151;28;20881;-67
2023/03/26 01:14:14;;;;;;;9.87;8.63;;;11.00;88.90;;;;;;5077039;28;20645;-67
2023/03/26 01:16:52;;;;;;;9.63;7.83;;;10.90;88.60;;;;;;5092143;28;20213;-67
2023/03/26 01:19:44;;;;;;;10.73;8.40;;;10.80;88.80;;;;;;5074078;28;20618;-67
2023/03/26 01:22:17;;;;;;;10.90;8.70;;;10.70;88.80;;;;;;5092620;28;20199;-67
2023/03/26 01:24:51;;;;;;;12.83;8.10;;;10.70;89.00;;;;;;5091730;28;20228;-67
2023/03/26 01:27:23;;;;;;;11.50;8.20;;;10.60;89.30;;;;;;5093985;28;20215;-67
2023/03/26 01:29:54;;;;;;;9.93;7.30;;;10.50;89.40;;;;;;5094590;28;20197;-68
2023/03/26 01:32:39;;;;;;;11.97;8.17;;;10.50;89.60;;;;;;5088510;28;20658;-69
2023/03/26 01:35:14;;;;;;;11.13;9.53;;;10.40;89.30;;;;;;5093124;28;20273;-67
2023/03/26 01:37:52;;;;;;;13.83;10.03;;;10.40;90.00;;;;;;5093548;28;20536;-67
2023/03/26 01:40:22;;;;;;;10.87;8.23;;;10.50;90.50;;;;;;5109242;28;20632;-68
2023/03/26 01:43:11;;;;;;;10.77;8.73;;;10.50;90.60;;;;;;5092891;28;20238;-67
2023/03/26 01:45:43;;;;;;;18.30;10.53;;;10.50;90.60;;;;;;5092119;28;20243;-67
2023/03/26 01:48:11;;;;;;;11.10;8.70;;;10.50;90.60;;;;;;5090629;28;20201;-67
2023/03/26 01:50:38;;;;;;;14.13;8.87;;;10.50;90.50;;;;;;5092684;28;20228;-68
2023/03/26 01:53:08;;;;;;;11.40;8.40;;;10.50;90.60;;;;;;5092129;28;20210;-67
2023/03/26 01:56:09;;;;;;;15.90;10.53;;;10.60;90.60;;;;;;5093060;28;20306;-67
2023/03/26 01:59:12;;;;;;;13.70;10.67;;;10.60;90.50;;;;;;5091194;28;20204;-67
2023/03/26 02:01:56;;;;;;;12.07;10.27;;;10.60;90.90;;;;;;5088679;28;20641;-67
2023/03/26 02:04:28;;;;;;;12.23;10.03;;;10.60;91.00;;;;;;5092738;28;20253;-67
2023/03/26 02:07:05;;;;;;;15.90;10.13;;;10.60;91.10;;;;;;5093253;28;20556;-67
2023/03/26 02:09:40;;;;;;;12.60;10.40;;;10.60;91.10;;;;;;5090260;28;20686;-67
2023/03/26 02:12:09;;;;;;;13.27;10.73;;;10.60;91.00;;;;;;5105206;28;20243;-67
2023/03/26 02:14:35;;;;;;;14.87;10.97;;;10.60;90.90;;;;;;5091979;28;20276;-68
2023/03/26 02:17:02;;;;;;;16.33;11.77;;;10.60;90.80;;;;;;5094216;28;20226;-67
2023/03/26 02:19:29;;;;;;;13.73;11.13;;;10.60;90.80;;;;;;5093490;28;20216;-68
2023/03/26 02:21:58;;;;;;;15.90;12.40;;;10.60;90.90;;;;;;5096945;28;20214;-67
2023/03/26 02:24:27;;;;;;;16.80;11.10;;;10.60;90.90;;;;;;5097100;28;20193;-67
2023/03/26 02:27:01;;;;;;;19.63;12.23;;;10.50;90.90;;;;;;5097016;28;20219;-67
2023/03/26 02:29:28;;;;;;;17.27;12.67;;;10.50;90.80;;;;;;5089222;28;20226;-67
2023/03/26 02:31:55;;;;;;;17.13;13.60;;;10.50;90.70;;;;;;5112602;28;20643;-67
2023/03/26 02:34:22;;;;;;;17.63;13.60;;;10.50;90.90;;;;;;5096882;28;20196;-67
2023/03/26 02:36:52;;;;;;;15.53;12.70;;;10.50;91.00;;;;;;5093058;28;20307;-67
2023/03/26 02:39:19;;;;;;;16.20;12.70;;;10.50;91.30;;;;;;5094416;28;20295;-67
2023/03/26 02:42:00;;;;;;;16.97;13.40;;;10.50;91.40;;;;;;5094526;28;20204;-67
2023/03/26 02:44:30;;;;;;;15.13;12.80;;;10.50;91.50;;;;;;5096640;28;20313;-68
2023/03/26 02:46:57;;;;;;;15.07;13.33;;;10.50;91.60;;;;;;5097990;28;20231;-68
2023/03/26 02:49:38;;;;;;;16.67;14.10;;;10.50;91.80;;;;;;5094730;28;20211;-67
2023/03/26 02:52:06;;;;;;;17.87;14.50;;;10.60;91.60;;;;;;5096606;28;20204;-67
2023/03/26 02:54:35;;;;;;;18.57;13.97;;;10.50;91.60;;;;;;5097396;28;20254;-67
2023/03/26 02:57:05;;;;;;;17.60;13.50;;;10.60;91.70;;;;;;5097666;28;20243;-67
2023/03/26 02:59:45;;;;;;;18.23;14.10;;;10.60;91.70;;;;;;5097350;28;20282;-67
2023/03/26 03:02:30;;;;;;;17.87;13.90;;;10.60;91.70;;;;;;5097640;28;20219;-67
2023/03/26 03:05:10;;;;;;;21.17;14.47;;;10.60;91.50;;;;;;5094069;28;20201;-67
2023/03/26 03:07:37;;;;;;;19.57;13.97;;;10.50;91.50;;;;;;5095705;28;20207;-67
2023/03/26 03:10:07;;;;;;;20.67;15.43;;;10.50;91.40;;;;;;5096459;28;20234;-67
2023/03/26 03:13:06;;;;;;;25.80;14.50;;;10.50;91.70;;;;;;5086156;28;20216;-67
2023/03/26 03:15:33;;;;;;;16.17;14.37;;;10.40;91.40;;;;;;5095579;28;20217;-67
2023/03/26 03:18:01;;;;;;;18.03;14.53;;;10.40;91.40;;;;;;5095629;28;20225;-67
2023/03/26 03:20:34;;;;;;;18.60;14.43;;;10.40;91.50;;;;;;5095371;28;20283;-68
2023/03/26 03:23:01;;;;;;;19.23;14.83;;;10.30;91.60;;;;;;5085823;28;20638;-70
2023/03/26 03:25:29;;;;;;;18.47;14.33;;;10.30;91.60;;;;;;5093310;28;20202;-67
2023/03/26 03:27:57;;;;;;;19.53;14.53;;;10.30;91.70;;;;;;5096737;28;20645;-67
2023/03/26 03:30:24;;;;;;;17.93;13.90;;;10.30;92.00;;;;;;5087413;28;20206;-67
2023/03/26 03:33:19;;;;;;;21.10;15.90;;;10.30;92.00;;;;;;5093773;28;20209;-68
2023/03/26 03:35:48;;;;;;;22.30;15.83;;;10.30;91.90;;;;;;5093837;28;20207;-67
2023/03/26 03:38:16;;;;;;;16.07;13.97;;;10.30;92.00;;;;;;5095575;28;20273;-67
2023/03/26 03:40:46;;;;;;;20.43;15.33;;;10.30;92.10;;;;;;5094685;28;20209;-67
2023/03/26 03:43:14;;;;;;;18.70;14.97;;;10.30;92.20;;;;;;5094110;28;20206;-67
2023/03/26 03:45:54;;;;;;;20.13;14.37;;;10.30;92.20;;;;;;5094045;28;20240;-67
2023/03/26 03:48:48;;;;;;;19.17;16.10;;;10.40;92.20;;;;;;5094225;28;20666;-67
2023/03/26 03:51:24;;;;;;;19.53;15.47;;;10.40;92.20;;;;;;5083590;28;20514;-67
2023/03/26 03:54:11;;;;;;;20.27;15.07;;;10.30;92.30;;;;;;5092307;28;20203;-67
2023/03/26 03:56:47;;;;;;;19.30;14.30;;;10.30;92.40;;;;;;5092817;28;20216;-67
2023/03/26 03:59:33;;;;;;;20.67;14.70;;;10.30;92.60;;;;;;5090088;28;20211;-67
2023/03/26 04:02:02;;;;;;;17.23;15.03;;;10.30;92.70;;;;;;5095071;28;20663;-68
2023/03/26 04:04:36;;;;;;;19.00;16.10;;;10.30;92.70;;;;;;5094220;28;20202;-67
2023/03/26 04:07:05;;;;;;;20.73;16.10;;;10.30;92.80;;;;;;5094377;28;20645;-74
2023/03/26 04:10:00;;;;;;;18.13;13.60;;;10.30;92.90;;;;;;5090890;28;20238;-67
2023/03/26 04:12:37;;;;;;;17.37;14.40;;;10.40;92.90;;;;;;5093035;28;20212;-67
2023/03/26 04:15:05;;;;;;;17.63;13.90;;;10.40;92.90;;;;;;5095293;28;20212;-67
2023/03/26 04:17:33;;;;;;;19.63;14.63;;;10.40;92.90;;;;;;5094150;28;20269;-66
2023/03/26 04:20:13;;;;;;;19.77;14.83;;;10.40;92.90;;;;;;5095239;28;20221;-67
2023/03/26 04:22:42;;;;;;;21.70;14.70;;;10.40;92.90;;;;;;5107050;28;20291;-67
2023/03/26 04:25:12;;;;;;;17.93;13.97;;;10.40;93.00;;;;;;5074364;28;20198;-67
2023/03/26 04:27:57;;;;;;;17.53;14.00;;;10.40;93.00;;;;;;5091721;28;20265;-67
2023/03/26 04:30:47;;;;;;;19.23;13.57;;;10.40;92.80;;;;;;5094179;28;20209;-67
2023/03/26 04:33:31;;;;;;;21.77;15.40;;;10.40;92.70;;;;;;5090305;28;20204;-67
2023/03/26 04:36:03;;;;;;;20.70;13.20;;;10.30;92.60;;;;;;5095006;28;20522;-67
2023/03/26 04:38:41;;;;;;;14.03;12.07;;;10.30;92.60;;;;;;5092983;28;20204;-67
2023/03/26 04:41:13;;;;;;;15.00;12.27;;;10.30;92.50;;;;;;5094628;28;20199;-67
2023/03/26 04:43:54;;;;;;;14.07;12.33;;;10.30;92.30;;;;;;5092816;28;20714;-67
2023/03/26 04:46:35;;;;;;;14.37;12.17;;;10.20;92.00;;;;;;5077723;28;20288;-67
2023/03/26 04:49:09;;;;;;;17.87;13.97;;;10.10;91.70;;;;;;5089680;28;20663;-67
2023/03/26 04:51:38;;;;;;;13.70;11.33;;;10.00;91.70;;;;;;5092291;28;20292;-67
2023/03/26 04:54:18;;;;;;;13.10;11.53;;;10.00;91.80;;;;;;5094175;28;20200;-67
2023/03/26 04:57:01;;;;;;;13.43;11.77;;;10.00;91.80;;;;;;5107039;28;20285;-67
2023/03/26 04:59:40;;;;;;;15.13;12.17;;;9.90;91.60;;;;;;5091999;28;20258;-68
2023/03/26 05:02:11;;;;;;;15.10;12.10;;;9.90;91.60;;;;;;5095372;28;20537;-67
2023/03/26 05:04:48;;;;;;;15.47;12.67;;;9.90;91.70;;;;;;5091135;28;20200;-67
2023/03/26 05:07:20;;;;;;;15.47;13.37;;;9.90;91.70;;;;;;5092981;28;20201;-67
2023/03/26 05:09:50;;;;;;;17.70;14.67;;;9.80;91.70;;;;;;5090870;28;20208;-67
2023/03/26 05:12:34;;;;;;;15.50;12.20;;;9.80;91.70;;;;;;5092501;28;20215;-67
2023/03/26 05:15:05;;;;;;;17.47;13.20;;;9.80;91.80;;;;;;5093859;28;20208;-67
2023/03/26 05:17:54;;;;;;;13.80;11.90;;;9.70;92.10;;;;;;5094773;28;20736;-67
2023/03/26 05:20:29;;;;;;;17.27;14.20;;;9.70;91.90;;;;;;5095033;28;20292;-66
2023/03/26 05:22:56;;;;;;;17.07;13.40;;;9.70;91.80;;;;;;5092449;28;20228;-67
2023/03/26 05:25:34;;;;;;;18.27;14.53;;;9.70;92.00;;;;;;5093776;28;20197;-66
2023/03/26 05:28:05;;;;;;;20.63;15.80;;;9.70;92.00;;;;;;5093396;28;20719;-67
2023/03/26 05:30:44;;;;;;;17.87;14.60;;;9.70;92.10;;;;;;5093695;28;20715;-66
2023/03/26 05:33:11;;;;;;;15.47;12.83;;;9.70;92.10;;;;;;5093455;28;20306;-66
2023/03/26 05:35:48;;;;;;;15.93;12.60;;;9.70;92.20;;;;;;5093538;28;20198;-67
2023/03/26 05:38:15;;;;;;;17.10;13.00;;;9.70;92.00;;;;;;5083812;28;20272;-67
2023/03/26 05:40:42;;;;;;;20.60;14.87;;;9.70;91.90;;;;;;5093182;28;20197;-66
2023/03/26 05:43:14;;;;;;;18.47;14.90;;;9.70;91.90;;;;;;5086997;28;20269;-66
2023/03/26 05:45:51;;;;;;;20.63;15.10;;;9.70;91.90;;;;;;5093173;28;20237;-67
2023/03/26 05:48:24;;;;;;;18.27;13.20;;;9.70;91.90;;;;;;5088390;28;20199;-66
2023/03/26 05:50:54;;;;;;;19.23;12.63;;;9.80;92.00;;;;;;5106283;28;20206;-68
2023/03/26 05:53:24;;;;;;;35.23;13.97;;;9.70;91.80;;;;;;5091625;28;20217;-67
2023/03/26 05:56:10;;;;;;;19.97;14.17;;;9.70;91.60;;;;;;5093534;28;20210;-66
2023/03/26 05:58:56;;;;;;;19.00;14.10;;;9.70;91.50;;;;;;5094147;28;20210;-68
2023/03/26 06:01:43;;;;;;;18.40;14.93;;;9.70;91.60;;;;;;5090911;28;20534;-67
2023/03/26 06:04:14;;;;;;;18.37;14.50;;;9.80;91.80;;;;;;5094353;28;20202;-67
2023/03/26 06:07:02;;;;;;;20.33;15.60;;;9.80;92.00;;;;;;5086767;28;20208;-67
2023/03/26 06:09:30;;;;;;;21.83;15.83;;;9.90;92.20;;;;;;5109051;28;20218;-66
2023/03/26 06:11:57;;;;;;;23.73;16.90;;;10.10;92.40;;;;;;5093480;28;20213;-67
2023/03/26 06:14:26;;;;;;;20.17;16.87;;;10.30;92.60;;;;;;5090171;28;20206;-66
2023/03/26 06:17:16;;;;;;;21.40;16.17;;;10.50;92.80;;;;;;5091219;28;20319;-66
2023/03/26 06:20:14;;;;;;;20.70;16.37;;;10.70;92.70;;;;;;5084335;28;20209;-67
2023/03/26 06:22:44;;;;;;;20.37;16.03;;;11.00;92.60;;;;;;5093106;28;20886;-67
2023/03/26 06:25:18;;;;;;;17.63;14.43;;;11.30;92.50;;;;;;5077457;28;20208;-66
2023/03/26 06:28:08;;;;;;;17.03;14.33;;;11.60;92.50;;;;;;5091804;28;20546;-67
2023/03/26 06:30:38;;;;;;;18.73;15.20;;;11.80;92.30;;;;;;5094387;28;20266;-67
2023/03/26 06:33:40;;;;;;;22.50;15.47;;;12.00;92.10;;;;;;5073025;28;20531;-67
2023/03/26 06:36:09;;;;;;;20.83;16.13;;;12.10;91.90;;;;;;5093004;28;20254;-67
2023/03/26 06:38:37;;;;;;;16.93;14.60;;;12.20;91.90;;;;;;5093189;28;20677;-67
2023/03/26 06:41:06;;;;;;;18.37;16.33;;;12.20;91.70;;;;;;5089188;28;20204;-67
2023/03/26 06:43:37;;;;;;;19.67;16.67;;;12.30;91.70;;;;;;5094253;28;20702;-68
2023/03/26 06:46:37;;;;;;;20.17;15.20;;;12.20;91.60;;;;;;5081383;28;20546;-67
2023/03/26 06:49:30;;;;;;;19.30;15.97;;;12.30;91.80;;;;;;5074298;28;20216;-67
2023/03/26 06:52:29;;;;;;;22.70;16.67;;;12.20;91.80;;;;;;5091344;28;20218;-68
2023/03/26 06:55:15;;;;;;;19.03;15.10;;;12.20;91.90;;;;;;5088189;28;20304;-67
2023/03/26 06:57:52;;;;;;;18.40;15.63;;;12.30;92.10;;;;;;5092565;28;20235;-67
2023/03/26 07:00:45;;;;;;;18.33;15.30;;;12.30;92.10;;;;;;5089046;28;20636;-67
2023/03/26 07:03:31;;;;;;;20.67;15.60;;;12.30;92.30;;;;;;5091645;28;20219;-68
2023/03/26 07:06:16;;;;;;;20.43;15.47;;;12.30;92.30;;;;;;5091327;28;20645;-68
2023/03/26 07:09:10;;;;;;;20.23;15.17;;;12.40;92.40;;;;;;5080614;28;20201;-67
2023/03/26 07:12:08;;;;;;;18.97;15.10;;;12.40;92.60;;;;;;5091701;28;20203;-67
2023/03/26 07:15:00;;;;;;;20.03;16.23;;;12.60;92.70;;;;;;5096122;28;20699;-67
2023/03/26 07:17:46;;;;;;;20.77;17.30;;;12.60;92.50;;;;;;5094665;28;20354;-67
2023/03/26 07:20:22;;;;;;;18.57;15.53;;;12.70;92.70;;;;;;5097387;28;20209;-68
2023/03/26 07:22:51;;;;;;;21.23;16.43;;;12.70;92.70;;;;;;5095946;28;20208;-67
2023/03/26 07:25:41;;;;;;;20.93;16.90;;;12.70;92.80;;;;;;5078790;28;20205;-67
2023/03/26 07:28:23;;;;;;;19.20;16.37;;;12.80;92.90;;;;;;5097134;28;20265;-67
2023/03/26 07:31:09;;;;;;;18.90;15.47;;;12.80;92.90;;;;;;5110624;27;20554;-68
2023/03/26 07:33:56;;;;;;;17.63;15.43;;;12.90;92.80;;;;;;5093077;28;20252;-67
2023/03/26 07:36:45;;;;;;;20.90;16.23;;;12.90;92.70;;;;;;5105933;28;20221;-67
2023/03/26 07:39:58;;;;;;;16.43;14.63;;;13.00;92.90;;;;;;5095577;28;20235;-68
2023/03/26 07:42:50;;;;;;;19.17;15.57;;;13.10;92.80;;;;;;5105668;28;20219;-68
2023/03/26 07:45:40;;;;;;;14.93;13.07;;;13.20;92.30;;;;;;5094077;28;20858;-67
2023/03/26 07:48:24;;;;;;;17.97;14.87;;;13.20;92.40;;;;;;5091055;28;20236;-68
2023/03/26 07:51:07;;;;;;;16.03;12.93;;;13.30;92.50;;;;;;5095381;28;20325;-68
2023/03/26 07:54:07;;;;;;;15.10;13.23;;;13.30;92.60;;;;;;5078681;28;20213;-69
2023/03/26 07:57:10;;;;;;;17.20;13.33;;;13.40;92.70;;;;;;5096179;28;20278;-68
2023/03/26 08:00:26;;;;;;;18.60;13.63;;;13.60;92.70;;;;;;5095344;28;20657;-67
2023/03/26 08:03:23;;;;;;;15.03;13.00;;;13.70;92.40;;;;;;5109307;28;20305;-68
2023/03/26 08:05:50;;;;;;;17.07;13.37;;;13.80;92.20;;;;;;5091490;28;20266;-67
2023/03/26 08:08:23;;;;;;;17.03;14.30;;;13.90;92.00;;;;;;5092856;28;20237;-67
2023/03/26 08:11:25;;;;;;;16.27;13.53;;;14.10;91.30;;;;;;5096138;28;20197;-67
2023/03/26 08:13:59;;;;;;;16.87;12.57;;;14.20;91.30;;;;;;5104456;28;20216;-68
2023/03/26 08:16:43;;;;;;;19.87;12.03;;;14.30;91.40;;;;;;5094576;28;20235;-67
2023/03/26 08:19:36;;;;;;;17.40;11.57;;;14.50;91.60;;;;;;5093943;28;20216;-67
2023/03/26 08:22:15;;;;;;;13.00;9.73;;;14.70;91.00;;;;;;5090009;28;20213;-68
2023/03/26 08:25:00;;;;;;;12.53;9.90;;;14.90;91.00;;;;;;5092647;28;20193;-68
2023/03/26 08:27:36;;;;;;;12.97;9.60;;;15.00;90.80;;;;;;5090411;28;20202;-67
2023/03/26 08:30:23;;;;;;;13.33;10.40;;;15.20;90.70;;;;;;5095901;28;20212;-67
2023/03/26 08:33:10;;;;;;;13.80;10.30;;;15.40;90.10;;;;;;5093191;28;20326;-67
2023/03/26 08:35:41;;;;;;;13.10;10.50;;;15.50;88.70;;;;;;5093378;28;20533;-67
2023/03/26 08:38:09;;;;;;;14.40;10.17;;;15.70;89.30;;;;;;5095403;28;20300;-67
2023/03/26 08:40:59;;;;;;;13.07;9.60;;;15.80;89.30;;;;;;5095445;28;20206;-67
2023/03/26 08:43:30;;;;;;;12.03;8.00;;;16.10;90.10;;;;;;5072952;28;20201;-67
2023/03/26 08:46:02;;;;;;;14.20;8.63;;;16.40;89.50;;;;;;5095195;28;20260;-67
2023/03/26 08:48:35;;;;;;;10.70;8.10;;;16.60;88.10;;;;;;5094558;28;20197;-68
2023/03/26 08:51:02;;;;;;;10.27;7.73;;;16.90;86.90;;;;;;5093741;28;20541;-67
2023/03/26 08:53:41;;;;;;;11.87;8.10;;;17.00;85.60;;;;;;5094357;28;20229;-68
2023/03/26 08:56:17;;;;;;;13.37;8.20;;;17.20;84.80;;;;;;5110754;28;20311;-69
2023/03/26 08:59:21;;;;;;;11.97;8.80;;;17.40;84.20;;;;;;5093610;28;20230;-68
2023/03/26 09:02:20;;;;;;;14.73;7.63;;;17.60;83.90;;;;;;5083430;28;20612;-68
2023/03/26 09:05:05;;;;;;;13.80;8.47;;;17.70;82.50;;;;;;5060446;28;20272;-67
2023/03/26 09:07:41;;;;;;;15.43;7.30;;;17.90;80.90;;;;;;5094590;28;20230;-68
2023/03/26 09:10:20;;;;;;;12.23;8.37;;;17.90;78.70;;;;;;5092767;28;20547;-67
2023/03/26 09:13:08;;;;;;;14.70;8.00;;;18.00;81.00;;;;;;5094396;28;20211;-68
2023/03/26 09:15:47;;;;;;;14.13;8.27;;;18.20;80.30;;;;;;5094621;28;20635;-67
2023/03/26 09:19:03;;;;;;;11.07;7.47;;;18.30;79.30;;;;;;5090366;28;20216;-68
2023/03/26 09:21:54;;;;;;;9.37;4.87;;;18.40;78.10;;;;;;5082724;28;20606;-67
2023/03/26 09:24:49;;;;;;;13.30;4.80;;;18.50;78.10;;;;;;5092378;28;20224;-67
2023/03/26 09:27:21;;;;;;;18.33;6.07;;;18.60;76.80;;;;;;5093646;28;20269;-68
2023/03/26 09:30:20;;;;;;;10.13;4.27;;;18.80;76.00;;;;;;5091232;28;20640;-68
2023/03/26 09:33:06;;;;;;;8.70;5.40;;;19.00;74.70;;;;;;5088363;28;20201;-67
2023/03/26 09:35:52;;;;;;;18.00;6.07;;;19.20;74.80;;;;;;5091146;28;20276;-67
2023/03/26 09:38:50;;;;;;;10.97;6.43;;;19.40;74.00;;;;;;5094273;28;20254;-67
2023/03/26 09:41:36;;;;;;;11.97;5.63;;;19.60;73.50;;;;;;5109574;28;20299;-68
2023/03/26 09:44:05;;;;;;;12.20;5.67;;;19.70;71.40;;;;;;5094526;28;20270;-68
2023/03/26 09:46:53;;;;;;;12.53;5.43;;;19.90;70.90;;;;;;5094404;28;20193;-68
2023/03/26 09:49:37;;;;;;;9.90;5.10;;;20.10;70.60;;;;;;5094238;28;20201;-67
2023/03/26 09:52:21;;;;;;;10.13;4.50;;;20.20;69.90;;;;;;5094391;28;20211;-69
2023/03/26 09:54:53;;;;;;;9.50;3.97;;;20.40;68.80;;;;;;5093683;28;20204;-68
2023/03/26 09:58:01;;;;;;;10.13;4.10;;;20.60;68.70;;;;;;5092817;28;20231;-68
2023/03/26 10:00:43;;;;;;;10.03;4.07;;;20.80;67.80;;;;;;5091749;28;20226;-67
2023/03/26 10:03:47;;;;;;;8.70;4.73;;;21.00;66.90;;;;;;5091747;28;20541;-68
2023/03/26 10:06:29;;;;;;;9.77;5.17;;;21.00;66.50;;;;;;5054354;28;20268;-68
2023/03/26 10:08:59;;;;;;;9.00;4.13;;;21.00;66.10;;;;;;5089959;28;20690;-67
2023/03/26 10:12:09;;;;;;;11.97;4.87;;;21.20;64.40;;;;;;5094288;28;20203;-68
2023/03/26 10:15:00;;;;;;;8.43;4.47;;;21.20;65.60;;;;;;5070654;28;20248;-67
2023/03/26 10:17:49;;;;;;;12.13;5.03;;;21.40;65.20;;;;;;5093231;28;20205;-67
2023/03/26 10:20:50;;;;;;;11.13;4.67;;;21.50;65.10;;;;;;5088841;28;20254;-67
2023/03/26 10:24:09;;;;;;;8.73;4.50;;;21.70;63.90;;;;;;5087847;28;20201;-69
2023/03/26 10:27:03;;;;;;;15.27;4.80;;;21.90;62.60;;;;;;5015573;28;20215;-68
2023/03/26 10:29:49;;;;;;;13.13;4.57;;;22.00;62.40;;;;;;5073156;28;20220;-68
2023/03/26 10:32:22;;;;;;;8.63;4.20;;;22.10;62.50;;;;;;5092314;28;20244;-67
2023/03/26 10:35:16;;;;;;;10.47;4.40;;;22.30;61.80;;;;;;5093087;28;20637;-67
2023/03/26 10:38:04;;;;;;;9.10;3.93;;;22.40;61.80;;;;;;5093346;28;20308;-68
2023/03/26 10:40:59;;;;;;;12.20;4.00;;;22.40;61.00;;;;;;5092708;28;20578;-67
2023/03/26 10:43:48;;;;;;;10.97;4.03;;;22.40;61.20;;;;;;5096302;28;20200;-68
2023/03/26 10:46:38;;;;;;;8.47;3.93;;;22.40;61.30;;;;;;5094492;28;20189;-68
2023/03/26 10:49:43;;;;;;;9.23;4.37;;;22.40;61.30;;;;;;5094746;28;20288;-68
2023/03/26 10:52:17;;;;;;;13.03;3.87;;;22.30;60.90;;;;;;5109582;28;20227;-70
2023/03/26 10:55:02;;;;;;;13.50;4.50;;;22.20;61.00;;;;;;5096011;28;20298;-68
2023/03/26 10:57:39;;;;;;;7.73;3.27;;;22.20;59.60;;;;;;5096443;28;20208;-68
2023/03/26 11:00:27;;;;;;;6.77;3.50;;;22.10;59.70;;;;;;5094039;28;20197;-68
2023/03/26 11:03:15;;;;;;;9.90;3.80;;;21.90;60.00;;;;;;5090839;28;20571;-68
2023/03/26 11:06:03;;;;;;;15.00;4.07;;;21.90;60.50;;;;;;5092745;28;20198;-68
2023/03/26 11:08:42;;;;;;;11.40;4.27;;;21.80;60.50;;;;;;5097166;28;20259;-68
2023/03/26 11:11:35;;;;;;;8.87;3.70;;;21.80;60.60;;;;;;5089845;28;20201;-67
2023/03/26 11:14:16;;;;;;;6.73;3.17;;;21.80;61.10;;;;;;5091736;28;20217;-68
2023/03/26 11:17:10;;;;;;;8.53;3.83;;;21.70;61.20;;;;;;5096960;28;20223;-67
2023/03/26 11:20:02;;;;;;;10.57;3.13;;;21.60;61.30;;;;;;5092485;28;20216;-68
2023/03/26 11:23:05;;;;;;;7.27;3.17;;;21.60;61.20;;;;;;5094517;28;20577;-67
2023/03/26 11:25:40;;;;;;;7.80;2.97;;;21.60;61.70;;;;;;5096633;28;20203;-67
2023/03/26 11:28:26;;;;;;;6.50;3.47;;;21.60;61.00;;;;;;5095760;28;20622;-68
2023/03/26 11:31:13;;;;;;;9.17;3.60;;;21.50;61.20;;;;;;5095800;28;20262;-68
2023/03/26 11:33:47;;;;;;;9.37;3.77;;;21.50;61.20;;;;;;5074995;28;20236;-67
2023/03/26 11:36:24;;;;;;;10.00;3.20;;;21.50;61.20;;;;;;5095460;28;20223;-69
2023/03/26 11:38:56;;;;;;;5.87;2.93;;;21.50;61.50;;;;;;5097915;28;20217;-67
2023/03/26 11:41:30;;;;;;;7.07;2.50;;;21.40;60.70;;;;;;5093929;28;20193;-67
2023/03/26 11:44:09;;;;;;;9.63;3.13;;;21.50;60.70;;;;;;5095939;28;20533;-67
2023/03/26 11:46:41;;;;;;;8.67;2.73;;;21.60;60.70;;;;;;5095480;28;20239;-68
2023/03/26 11:49:11;;;;;;;10.60;3.37;;;21.80;60.60;;;;;;5096634;28;20617;-68
2023/03/26 11:51:40;;;;;;;9.87;3.07;;;22.00;60.50;;;;;;5095767;28;20215;-68
2023/03/26 11:54:10;;;;;;;9.50;2.73;;;22.20;59.60;;;;;;5094796;28;20231;-67
2023/03/26 11:57:00;;;;;;;11.97;3.03;;;22.30;59.10;;;;;;5096425;28;20629;-68
2023/03/26 12:00:17;;;;;;;10.50;3.00;;;22.50;58.70;;;;;;5095526;28;20552;-68
2023/03/26 12:02:46;;;;;;;11.10;3.03;;;22.70;58.60;;;;;;5088496;28;20217;-67
2023/03/26 12:05:25;;;;;;;10.83;3.13;;;22.70;57.50;;;;;;5091642;28;20212;-67
2023/03/26 12:08:00;;;;;;;12.80;2.90;;;22.70;58.20;;;;;;5089318;28;20213;-68
2023/03/26 12:10:30;;;;;;;8.13;2.87;;;22.70;58.50;;;;;;5094994;28;20504;-68
2023/03/26 12:13:00;;;;;;;8.87;2.93;;;22.70;57.90;;;;;;5086462;28;20292;-68
2023/03/26 12:15:30;;;;;;;10.87;3.27;;;22.60;56.00;;;;;;5095808;28;20197;-68
2023/03/26 12:18:21;;;;;;;9.50;2.80;;;22.60;56.30;;;;;;5109504;28;20589;-68
2023/03/26 12:21:01;;;;;;;8.47;2.90;;;22.60;57.10;;;;;;5090203;28;20648;-68
2023/03/26 12:23:36;;;;;;;9.00;3.13;;;22.70;56.80;;;;;;5088658;28;20193;-68
2023/03/26 12:26:15;;;;;;;6.97;2.50;;;22.80;56.30;;;;;;5092808;28;20212;-68
2023/03/26 12:28:48;;;;;;;7.90;2.80;;;22.90;55.40;;;;;;5093842;28;20212;-68
2023/03/26 12:31:19;;;;;;;12.40;3.20;;;23.00;55.70;;;;;;5095076;28;20216;-67
2023/03/26 12:34:06;;;;;;;7.43;2.27;;;23.00;56.00;;;;;;5090813;28;20208;-68
2023/03/26 12:36:35;;;;;;;6.77;2.50;;;23.10;55.10;;;;;;5092354;28;20197;-67
2023/03/26 12:39:24;;;;;;;10.47;2.67;;;23.10;54.60;;;;;;5094393;28;20244;-68
2023/03/26 12:42:25;;;;;;;6.83;2.47;;;23.10;54.30;;;;;;5094841;28;20245;-68
2023/03/26 12:45:13;;;;;;;10.27;2.53;;;23.10;55.40;;;;;;5090709;28;20294;-68
2023/03/26 12:47:41;;;;;;;7.90;3.17;;;23.10;55.60;;;;;;5085470;28;20300;-69
2023/03/26 12:51:06;;;;;;;9.47;2.90;;;23.20;56.90;;;;;;5091376;28;20194;-67
2023/03/26 12:54:25;;;;;;;11.33;3.30;;;23.30;54.20;;;;;;5078109;28;20228;-67
2023/03/26 12:57:25;;;;;;;10.43;3.17;;;23.20;53.10;;;;;;5033595;28;20211;-68
2023/03/26 12:59:52;;;;;;;8.13;2.77;;;23.10;53.80;;;;;;5084944;28;20304;-67
2023/03/26 13:02:42;;;;;;;6.57;2.80;;;23.00;55.70;;;;;;5108190;28;20301;-67
2023/03/26 13:05:31;;;;;;;5.43;2.87;;;22.90;55.60;;;;;;5092949;28;20197;-67
2023/03/26 13:08:35;;;;;;;7.03;2.97;;;22.80;54.90;;;;;;5067012;28;20202;-67
2023/03/26 13:11:20;;;;;;;12.67;2.90;;;22.70;55.80;;;;;;5093651;28;20197;-67
2023/03/26 13:13:57;;;;;;;8.17;3.23;;;22.70;56.70;;;;;;5092969;28;20270;-67
2023/03/26 13:16:50;;;;;;;5.87;2.50;;;22.60;57.00;;;;;;5093726;28;20552;-68
2023/03/26 13:19:23;;;;;;;10.90;2.93;;;22.50;56.90;;;;;;5079910;28;20224;-67
2023/03/26 13:22:17;;;;;;;7.23;2.70;;;22.40;57.20;;;;;;5091965;28;20228;-67
2023/03/26 13:25:06;;;;;;;9.20;3.50;;;22.30;58.20;;;;;;5091105;28;20197;-67
2023/03/26 13:28:03;;;;;;;12.47;2.70;;;22.20;59.10;;;;;;5092202;28;20219;-67
2023/03/26 13:31:02;;;;;;;9.87;2.93;;;22.30;57.50;;;;;;5094457;28;20182;-67
2023/03/26 13:33:41;;;;;;;5.77;2.67;;;22.40;57.10;;;;;;5091506;28;20189;-67
2023/03/26 13:36:23;;;;;;;7.03;2.33;;;22.50;56.10;;;;;;5091700;28;20545;-67
2023/03/26 13:39:03;;;;;;;8.17;2.67;;;22.50;54.10;;;;;;5092514;28;20209;-68
2023/03/26 13:41:59;;;;;;;11.10;2.70;;;22.40;54.90;;;;;;5091998;28;20318;-68